sensor_id;sensor_type;location;lat;lon;timestamp;P1;durP1;ratioP1;P2;durP2;ratioP2
20954;SDS011;10636;19.390;-99.256;2023-12-29T00:00:04;9.23;;;6.03;;
20954;SDS011;10636;19.390;-99.256;2023-12-29T00:02:34;8.90;;;6.57;;
20954;SDS011;10636;19.390;-99.256;2023-12-29T00:05:03;11.80;;;7.10;;
20954;SDS011;10636;19.390;-99.256;2023-12-29T00:07:32;9.98;;;7.25;;
20954;SDS011;10636;19.390;-99.256;2023-12-29T00:10:02;9.70;;;7.30;;
20954;SDS011;10636;19.390;-99.256;2023-12-29T00:12:31;8.85;;;7.68;;
20954;SDS011;10636;19.390;-99.256;2023-12-29T00:15:00;9.02;;;7.93;;
20954;SDS011;10636;19.390;-99.256;2023-12-29T00:17:29;10.02;;;8.20;;
20954;SDS011;10636;19.390;-99.256;2023-12-29T00:19:57;12.18;;;8.05;;
20954;SDS011;10636;19.390;-99.256;2023-12-29T00:22:26;12.82;;;10.23;;
20954;SDS011;10636;19.390;-99.256;2023-12-29T00:24:54;15.63;;;14.15;;
20954;SDS011;10636;19.390;-99.256;2023-12-29T00:27:25;17.02;;;15.85;;
20954;SDS011;10636;19.390;-99.256;2023-12-29T00:29:53;23.98;;;22.30;;
20954;SDS011;10636;19.390;-99.256;2023-12-29T00:32:22;24.05;;;22.38;;
20954;SDS011;10636;19.390;-99.256;2023-12-29T00:34:50;26.83;;;25.15;;
20954;SDS011;10636;19.390;-99.256;2023-12-29T00:37:19;10.05;;;9.02;;
20954;SDS011;10636;19.390;-99.256;2023-12-29T00:39:47;22.42;;;20.83;;
20954;SDS011;10636;19.390;-99.256;2023-12-29T00:42:16;19.95;;;18.52;;
20954;SDS011;10636;19.390;-99.256;2023-12-29T00:44:47;19.85;;;18.33;;
20954;SDS011;10636;19.390;-99.256;2023-12-29T00:47:15;20.17;;;18.73;;
20954;SDS011;10636;19.390;-99.256;2023-12-29T00:49:45;13.45;;;10.82;;
20954;SDS011;10636;19.390;-99.256;2023-12-29T00:52:13;16.88;;;15.60;;
20954;SDS011;10636;19.390;-99.256;2023-12-29T00:54:42;12.02;;;10.68;;
20954;SDS011;10636;19.390;-99.256;2023-12-29T00:57:11;12.35;;;11.07;;
20954;SDS011;10636;19.390;-99.256;2023-12-29T00:59:39;16.90;;;15.52;;
20954;SDS011;10636;19.390;-99.256;2023-12-29T01:02:11;16.67;;;15.25;;
20954;SDS011;10636;19.390;-99.256;2023-12-29T01:04:39;17.75;;;16.00;;
20954;SDS011;10636;19.390;-99.256;2023-12-29T01:07:08;17.33;;;15.75;;
20954;SDS011;10636;19.390;-99.256;2023-12-29T01:09:37;18.63;;;15.63;;
20954;SDS011;10636;19.390;-99.256;2023-12-29T01:12:06;17.13;;;15.68;;
20954;SDS011;10636;19.390;-99.256;2023-12-29T01:14:35;15.45;;;13.93;;
20954;SDS011;10636;19.390;-99.256;2023-12-29T01:17:03;15.15;;;14.00;;
20954;SDS011;10636;19.390;-99.256;2023-12-29T01:19:33;14.85;;;13.75;;
20954;SDS011;10636;19.390;-99.256;2023-12-29T01:22:02;15.82;;;14.52;;
20954;SDS011;10636;19.390;-99.256;2023-12-29T01:24:31;14.05;;;12.95;;
20954;SDS011;10636;19.390;-99.256;2023-12-29T01:26:59;14.32;;;13.25;;
20954;SDS011;10636;19.390;-99.256;2023-12-29T01:29:29;13.93;;;12.82;;
20954;SDS011;10636;19.390;-99.256;2023-12-29T01:31:58;15.50;;;14.23;;
20954;SDS011;10636;19.390;-99.256;2023-12-29T01:34:29;12.88;;;11.68;;
20954;SDS011;10636;19.390;-99.256;2023-12-29T01:37:02;13.45;;;12.48;;
20954;SDS011;10636;19.390;-99.256;2023-12-29T01:39:31;11.52;;;9.38;;
20954;SDS011;10636;19.390;-99.256;2023-12-29T01:42:00;14.45;;;13.25;;
20954;SDS011;10636;19.390;-99.256;2023-12-29T01:44:29;13.50;;;12.60;;
20954;SDS011;10636;19.390;-99.256;2023-12-29T01:46:58;9.02;;;8.20;;
20954;SDS011;10636;19.390;-99.256;2023-12-29T01:49:31;13.20;;;12.27;;
20954;SDS011;10636;19.390;-99.256;2023-12-29T01:52:02;14.25;;;13.05;;
20954;SDS011;10636;19.390;-99.256;2023-12-29T01:54:32;9.85;;;8.88;;
20954;SDS011;10636;19.390;-99.256;2023-12-29T01:57:06;13.20;;;12.18;;
20954;SDS011;10636;19.390;-99.256;2023-12-29T01:59:38;15.45;;;14.27;;
20954;SDS011;10636;19.390;-99.256;2023-12-29T02:02:08;14.05;;;13.05;;
20954;SDS011;10636;19.390;-99.256;2023-12-29T02:04:38;13.38;;;12.45;;
20954;SDS011;10636;19.390;-99.256;2023-12-29T02:07:10;14.68;;;13.68;;
20954;SDS011;10636;19.390;-99.256;2023-12-29T02:09:39;14.32;;;13.32;;
20954;SDS011;10636;19.390;-99.256;2023-12-29T02:12:08;14.27;;;12.98;;
20954;SDS011;10636;19.390;-99.256;2023-12-29T02:14:37;9.73;;;8.82;;
20954;SDS011;10636;19.390;-99.256;2023-12-29T02:17:07;9.52;;;8.73;;
20954;SDS011;10636;19.390;-99.256;2023-12-29T02:19:39;13.93;;;12.73;;
20954;SDS011;10636;19.390;-99.256;2023-12-29T02:22:11;13.77;;;12.80;;
20954;SDS011;10636;19.390;-99.256;2023-12-29T02:24:45;14.85;;;13.75;;
20954;SDS011;10636;19.390;-99.256;2023-12-29T02:27:23;9.73;;;8.82;;
20954;SDS011;10636;19.390;-99.256;2023-12-29T02:30:02;10.57;;;8.93;;
20954;SDS011;10636;19.390;-99.256;2023-12-29T02:32:38;13.20;;;12.20;;
20954;SDS011;10636;19.390;-99.256;2023-12-29T02:35:08;9.68;;;8.68;;
20954;SDS011;10636;19.390;-99.256;2023-12-29T02:37:39;9.55;;;8.55;;
20954;SDS011;10636;19.390;-99.256;2023-12-29T02:40:11;13.65;;;12.55;;
20954;SDS011;10636;19.390;-99.256;2023-12-29T02:42:44;13.88;;;12.88;;
20954;SDS011;10636;19.390;-99.256;2023-12-29T02:45:14;9.23;;;8.23;;
20954;SDS011;10636;19.390;-99.256;2023-12-29T02:47:43;9.57;;;8.68;;
20954;SDS011;10636;19.390;-99.256;2023-12-29T02:50:14;9.65;;;8.68;;
20954;SDS011;10636;19.390;-99.256;2023-12-29T02:52:43;9.27;;;8.38;;
20954;SDS011;10636;19.390;-99.256;2023-12-29T02:55:13;9.75;;;8.75;;
20954;SDS011;10636;19.390;-99.256;2023-12-29T02:57:42;9.80;;;8.90;;
20954;SDS011;10636;19.390;-99.256;2023-12-29T03:00:11;15.95;;;14.85;;
20954;SDS011;10636;19.390;-99.256;2023-12-29T03:02:40;17.02;;;15.43;;
20954;SDS011;10636;19.390;-99.256;2023-12-29T03:05:10;14.02;;;12.93;;
20954;SDS011;10636;19.390;-99.256;2023-12-29T03:07:38;14.60;;;13.50;;
20954;SDS011;10636;19.390;-99.256;2023-12-29T03:10:07;14.38;;;13.38;;
20954;SDS011;10636;19.390;-99.256;2023-12-29T03:12:37;9.80;;;8.80;;
20954;SDS011;10636;19.390;-99.256;2023-12-29T03:15:06;12.05;;;9.52;;
20954;SDS011;10636;19.390;-99.256;2023-12-29T03:17:35;9.38;;;8.48;;
20954;SDS011;10636;19.390;-99.256;2023-12-29T03:20:04;14.27;;;13.27;;
20954;SDS011;10636;19.390;-99.256;2023-12-29T03:22:33;15.27;;;14.18;;
20954;SDS011;10636;19.390;-99.256;2023-12-29T03:25:02;16.10;;;14.80;;
20954;SDS011;10636;19.390;-99.256;2023-12-29T03:27:30;10.13;;;8.90;;
20954;SDS011;10636;19.390;-99.256;2023-12-29T03:30:01;10.02;;;9.02;;
20954;SDS011;10636;19.390;-99.256;2023-12-29T03:32:29;14.90;;;13.70;;
20954;SDS011;10636;19.390;-99.256;2023-12-29T03:34:58;11.63;;;9.70;;
20954;SDS011;10636;19.390;-99.256;2023-12-29T03:37:26;10.30;;;9.20;;
20954;SDS011;10636;19.390;-99.256;2023-12-29T03:39:55;10.88;;;9.63;;
20954;SDS011;10636;19.390;-99.256;2023-12-29T03:42:23;15.02;;;13.93;;
20954;SDS011;10636;19.390;-99.256;2023-12-29T03:44:52;14.70;;;13.68;;
20954;SDS011;10636;19.390;-99.256;2023-12-29T03:47:22;15.57;;;14.38;;
20954;SDS011;10636;19.390;-99.256;2023-12-29T03:49:51;10.80;;;9.80;;
20954;SDS011;10636;19.390;-99.256;2023-12-29T03:52:19;16.52;;;15.20;;
20954;SDS011;10636;19.390;-99.256;2023-12-29T03:54:48;14.65;;;13.57;;
20954;SDS011;10636;19.390;-99.256;2023-12-29T03:57:16;14.25;;;13.20;;
20954;SDS011;10636;19.390;-99.256;2023-12-29T03:59:45;10.82;;;9.73;;
20954;SDS011;10636;19.390;-99.256;2023-12-29T04:02:13;10.73;;;9.63;;
20954;SDS011;10636;19.390;-99.256;2023-12-29T04:04:45;11.32;;;10.13;;
20954;SDS011;10636;19.390;-99.256;2023-12-29T04:07:13;10.98;;;9.75;;
20954;SDS011;10636;19.390;-99.256;2023-12-29T04:09:43;15.82;;;14.63;;
20954;SDS011;10636;19.390;-99.256;2023-12-29T04:12:11;11.45;;;10.25;;
20954;SDS011;10636;19.390;-99.256;2023-12-29T04:14:40;14.38;;;13.38;;
20954;SDS011;10636;19.390;-99.256;2023-12-29T04:17:08;14.98;;;13.90;;
20954;SDS011;10636;19.390;-99.256;2023-12-29T04:19:39;14.15;;;13.15;;
20954;SDS011;10636;19.390;-99.256;2023-12-29T04:22:13;14.93;;;13.82;;
20954;SDS011;10636;19.390;-99.256;2023-12-29T04:24:41;16.08;;;14.90;;
20954;SDS011;10636;19.390;-99.256;2023-12-29T04:27:10;15.25;;;14.15;;
20954;SDS011;10636;19.390;-99.256;2023-12-29T04:29:39;15.07;;;13.90;;
20954;SDS011;10636;19.390;-99.256;2023-12-29T04:32:08;14.65;;;13.57;;
20954;SDS011;10636;19.390;-99.256;2023-12-29T04:34:36;11.52;;;10.38;;
20954;SDS011;10636;19.390;-99.256;2023-12-29T04:37:07;16.17;;;14.98;;
20954;SDS011;10636;19.390;-99.256;2023-12-29T04:39:35;16.92;;;15.50;;
20954;SDS011;10636;19.390;-99.256;2023-12-29T04:42:04;15.55;;;14.38;;
20954;SDS011;10636;19.390;-99.256;2023-12-29T04:44:32;16.00;;;14.80;;
20954;SDS011;10636;19.390;-99.256;2023-12-29T04:47:01;11.38;;;10.38;;
20954;SDS011;10636;19.390;-99.256;2023-12-29T04:49:30;14.70;;;13.57;;
20954;SDS011;10636;19.390;-99.256;2023-12-29T04:51:58;15.52;;;14.43;;
20954;SDS011;10636;19.390;-99.256;2023-12-29T04:54:29;15.18;;;13.98;;
20954;SDS011;10636;19.390;-99.256;2023-12-29T04:56:57;15.70;;;14.50;;
20954;SDS011;10636;19.390;-99.256;2023-12-29T04:59:26;15.57;;;14.48;;
20954;SDS011;10636;19.390;-99.256;2023-12-29T05:01:54;15.75;;;14.65;;
20954;SDS011;10636;19.390;-99.256;2023-12-29T05:04:23;15.32;;;14.23;;
20954;SDS011;10636;19.390;-99.256;2023-12-29T05:06:51;16.08;;;14.88;;
20954;SDS011;10636;19.390;-99.256;2023-12-29T05:09:20;16.15;;;14.95;;
20954;SDS011;10636;19.390;-99.256;2023-12-29T05:11:51;15.93;;;14.73;;
20954;SDS011;10636;19.390;-99.256;2023-12-29T05:14:19;17.10;;;15.73;;
20954;SDS011;10636;19.390;-99.256;2023-12-29T05:16:48;15.32;;;14.15;;
20954;SDS011;10636;19.390;-99.256;2023-12-29T05:19:16;15.75;;;14.45;;
20954;SDS011;10636;19.390;-99.256;2023-12-29T05:21:45;15.90;;;14.63;;
20954;SDS011;10636;19.390;-99.256;2023-12-29T05:24:15;15.13;;;13.98;;
20954;SDS011;10636;19.390;-99.256;2023-12-29T05:26:43;16.35;;;15.13;;
20954;SDS011;10636;19.390;-99.256;2023-12-29T05:29:14;15.45;;;14.35;;
20954;SDS011;10636;19.390;-99.256;2023-12-29T05:31:42;14.65;;;13.55;;
20954;SDS011;10636;19.390;-99.256;2023-12-29T05:34:11;15.80;;;14.70;;
20954;SDS011;10636;19.390;-99.256;2023-12-29T05:36:39;10.65;;;9.65;;
20954;SDS011;10636;19.390;-99.256;2023-12-29T05:39:08;16.98;;;15.63;;
20954;SDS011;10636;19.390;-99.256;2023-12-29T05:41:36;15.30;;;14.00;;
20954;SDS011;10636;19.390;-99.256;2023-12-29T05:44:05;15.60;;;14.50;;
20954;SDS011;10636;19.390;-99.256;2023-12-29T05:46:35;16.33;;;15.23;;
20954;SDS011;10636;19.390;-99.256;2023-12-29T05:49:03;11.27;;;10.23;;
20954;SDS011;10636;19.390;-99.256;2023-12-29T05:51:32;15.52;;;14.32;;
20954;SDS011;10636;19.390;-99.256;2023-12-29T05:54:00;16.50;;;15.20;;
20954;SDS011;10636;19.390;-99.256;2023-12-29T05:56:29;16.48;;;15.25;;
20954;SDS011;10636;19.390;-99.256;2023-12-29T05:58:58;11.48;;;10.43;;
20954;SDS011;10636;19.390;-99.256;2023-12-29T06:01:26;11.27;;;10.20;;
20954;SDS011;10636;19.390;-99.256;2023-12-29T06:03:56;15.02;;;13.82;;
20954;SDS011;10636;19.390;-99.256;2023-12-29T06:06:25;16.33;;;15.10;;
20954;SDS011;10636;19.390;-99.256;2023-12-29T06:08:54;12.10;;;10.90;;
20954;SDS011;10636;19.390;-99.256;2023-12-29T06:11:22;11.02;;;9.93;;
20954;SDS011;10636;19.390;-99.256;2023-12-29T06:13:51;11.32;;;9.63;;
20954;SDS011;10636;19.390;-99.256;2023-12-29T06:16:19;11.48;;;10.38;;
20954;SDS011;10636;19.390;-99.256;2023-12-29T06:18:49;10.95;;;9.85;;
20954;SDS011;10636;19.390;-99.256;2023-12-29T06:21:19;15.90;;;14.80;;
20954;SDS011;10636;19.390;-99.256;2023-12-29T06:23:47;10.80;;;9.65;;
20954;SDS011;10636;19.390;-99.256;2023-12-29T06:26:16;10.07;;;9.18;;
20954;SDS011;10636;19.390;-99.256;2023-12-29T06:28:45;15.13;;;14.10;;
20954;SDS011;10636;19.390;-99.256;2023-12-29T06:31:16;14.77;;;13.77;;
20954;SDS011;10636;19.390;-99.256;2023-12-29T06:33:45;10.30;;;9.30;;
20954;SDS011;10636;19.390;-99.256;2023-12-29T06:36:13;15.15;;;14.10;;
20954;SDS011;10636;19.390;-99.256;2023-12-29T06:38:44;10.43;;;9.35;;
20954;SDS011;10636;19.390;-99.256;2023-12-29T06:41:14;9.95;;;9.07;;
20954;SDS011;10636;19.390;-99.256;2023-12-29T06:43:42;16.10;;;14.90;;
20954;SDS011;10636;19.390;-99.256;2023-12-29T06:46:11;15.13;;;14.02;;
20954;SDS011;10636;19.390;-99.256;2023-12-29T06:48:41;15.30;;;14.30;;
20954;SDS011;10636;19.390;-99.256;2023-12-29T06:51:15;13.93;;;12.82;;
20954;SDS011;10636;19.390;-99.256;2023-12-29T06:53:49;9.43;;;8.57;;
20954;SDS011;10636;19.390;-99.256;2023-12-29T06:56:17;14.15;;;13.15;;
20954;SDS011;10636;19.390;-99.256;2023-12-29T06:58:46;9.02;;;8.32;;
20954;SDS011;10636;19.390;-99.256;2023-12-29T07:01:16;8.48;;;7.63;;
20954;SDS011;10636;19.390;-99.256;2023-12-29T07:03:45;8.98;;;8.27;;
20954;SDS011;10636;19.390;-99.256;2023-12-29T07:06:13;13.82;;;12.85;;
20954;SDS011;10636;19.390;-99.256;2023-12-29T07:08:42;8.82;;;8.13;;
20954;SDS011;10636;19.390;-99.256;2023-12-29T07:11:12;8.40;;;7.70;;
20954;SDS011;10636;19.390;-99.256;2023-12-29T07:13:41;8.20;;;7.50;;
20954;SDS011;10636;19.390;-99.256;2023-12-29T07:16:09;13.07;;;12.27;;
20954;SDS011;10636;19.390;-99.256;2023-12-29T07:18:38;11.80;;;11.10;;
20954;SDS011;10636;19.390;-99.256;2023-12-29T07:21:06;11.98;;;11.18;;
20954;SDS011;10636;19.390;-99.256;2023-12-29T07:23:37;13.30;;;12.43;;
20954;SDS011;10636;19.390;-99.256;2023-12-29T07:26:07;7.35;;;6.60;;
20954;SDS011;10636;19.390;-99.256;2023-12-29T07:28:37;12.93;;;12.02;;
20954;SDS011;10636;19.390;-99.256;2023-12-29T07:31:06;11.50;;;10.70;;
20954;SDS011;10636;19.390;-99.256;2023-12-29T07:33:35;11.20;;;10.45;;
20954;SDS011;10636;19.390;-99.256;2023-12-29T07:36:04;11.48;;;10.68;;
20954;SDS011;10636;19.390;-99.256;2023-12-29T07:38:33;11.55;;;10.75;;
20954;SDS011;10636;19.390;-99.256;2023-12-29T07:41:02;11.48;;;10.57;;
20954;SDS011;10636;19.390;-99.256;2023-12-29T07:43:31;12.55;;;11.65;;
20954;SDS011;10636;19.390;-99.256;2023-12-29T07:46:01;11.82;;;11.02;;
20954;SDS011;10636;19.390;-99.256;2023-12-29T07:48:29;7.38;;;6.30;;
20954;SDS011;10636;19.390;-99.256;2023-12-29T07:50:58;6.60;;;6.10;;
20954;SDS011;10636;19.390;-99.256;2023-12-29T07:53:32;10.50;;;9.85;;
20954;SDS011;10636;19.390;-99.256;2023-12-29T07:56:01;10.70;;;9.82;;
20954;SDS011;10636;19.390;-99.256;2023-12-29T07:58:30;10.45;;;9.75;;
20954;SDS011;10636;19.390;-99.256;2023-12-29T08:00:58;10.35;;;9.75;;
20954;SDS011;10636;19.390;-99.256;2023-12-29T08:03:28;9.98;;;9.38;;
20954;SDS011;10636;19.390;-99.256;2023-12-29T08:05:57;9.88;;;9.27;;
20954;SDS011;10636;19.390;-99.256;2023-12-29T08:08:25;10.20;;;9.60;;
20954;SDS011;10636;19.390;-99.256;2023-12-29T08:10:54;10.07;;;9.48;;
20954;SDS011;10636;19.390;-99.256;2023-12-29T08:13:22;5.88;;;5.38;;
20954;SDS011;10636;19.390;-99.256;2023-12-29T08:15:51;9.60;;;9.00;;
20954;SDS011;10636;19.390;-99.256;2023-12-29T08:18:21;5.90;;;5.40;;
20954;SDS011;10636;19.390;-99.256;2023-12-29T08:20:50;9.10;;;8.60;;
20954;SDS011;10636;19.390;-99.256;2023-12-29T08:23:18;5.72;;;5.22;;
20954;SDS011;10636;19.390;-99.256;2023-12-29T08:25:47;9.98;;;9.32;;
20954;SDS011;10636;19.390;-99.256;2023-12-29T08:28:15;9.40;;;8.80;;
20954;SDS011;10636;19.390;-99.256;2023-12-29T08:30:45;9.95;;;9.27;;
20954;SDS011;10636;19.390;-99.256;2023-12-29T08:33:14;9.35;;;8.85;;
20954;SDS011;10636;19.390;-99.256;2023-12-29T08:35:44;5.05;;;4.65;;
20954;SDS011;10636;19.390;-99.256;2023-12-29T08:38:13;9.57;;;8.98;;
20954;SDS011;10636;19.390;-99.256;2023-12-29T08:40:41;5.10;;;4.60;;
20954;SDS011;10636;19.390;-99.256;2023-12-29T08:43:11;5.18;;;4.68;;
20954;SDS011;10636;19.390;-99.256;2023-12-29T08:45:42;4.95;;;4.55;;
20954;SDS011;10636;19.390;-99.256;2023-12-29T08:48:10;8.45;;;7.95;;
20954;SDS011;10636;19.390;-99.256;2023-12-29T08:50:40;9.75;;;9.15;;
20954;SDS011;10636;19.390;-99.256;2023-12-29T08:53:10;8.52;;;8.05;;
20954;SDS011;10636;19.390;-99.256;2023-12-29T08:55:38;4.70;;;4.30;;
20954;SDS011;10636;19.390;-99.256;2023-12-29T08:58:07;4.40;;;4.05;;
20954;SDS011;10636;19.390;-99.256;2023-12-29T09:00:35;8.45;;;7.95;;
20954;SDS011;10636;19.390;-99.256;2023-12-29T09:03:04;9.35;;;8.85;;
20954;SDS011;10636;19.390;-99.256;2023-12-29T09:05:33;4.50;;;4.10;;
20954;SDS011;10636;19.390;-99.256;2023-12-29T09:08:01;4.65;;;4.25;;
20954;SDS011;10636;19.390;-99.256;2023-12-29T09:10:32;9.27;;;8.77;;
20954;SDS011;10636;19.390;-99.256;2023-12-29T09:13:00;7.43;;;6.93;;
20954;SDS011;10636;19.390;-99.256;2023-12-29T09:15:29;10.85;;;10.25;;
20954;SDS011;10636;19.390;-99.256;2023-12-29T09:17:57;9.40;;;8.90;;
20954;SDS011;10636;19.390;-99.256;2023-12-29T09:20:26;11.57;;;10.88;;
20954;SDS011;10636;19.390;-99.256;2023-12-29T09:22:54;10.30;;;9.70;;
20954;SDS011;10636;19.390;-99.256;2023-12-29T09:25:23;10.20;;;9.63;;
20954;SDS011;10636;19.390;-99.256;2023-12-29T09:27:53;10.75;;;10.15;;
20954;SDS011;10636;19.390;-99.256;2023-12-29T09:30:22;9.43;;;8.93;;
20954;SDS011;10636;19.390;-99.256;2023-12-29T09:32:50;10.40;;;9.90;;
20954;SDS011;10636;19.390;-99.256;2023-12-29T09:35:19;9.13;;;8.63;;
20954;SDS011;10636;19.390;-99.256;2023-12-29T09:37:48;10.50;;;10.00;;
20954;SDS011;10636;19.390;-99.256;2023-12-29T09:40:18;10.00;;;9.40;;
20954;SDS011;10636;19.390;-99.256;2023-12-29T09:42:47;10.13;;;9.63;;
20954;SDS011;10636;19.390;-99.256;2023-12-29T09:45:19;8.82;;;8.35;;
20954;SDS011;10636;19.390;-99.256;2023-12-29T09:47:51;10.43;;;9.85;;
20954;SDS011;10636;19.390;-99.256;2023-12-29T09:50:20;10.40;;;9.90;;
20954;SDS011;10636;19.390;-99.256;2023-12-29T09:52:49;11.10;;;10.60;;
20954;SDS011;10636;19.390;-99.256;2023-12-29T09:55:20;10.00;;;9.40;;
20954;SDS011;10636;19.390;-99.256;2023-12-29T09:57:49;7.28;;;6.88;;
20954;SDS011;10636;19.390;-99.256;2023-12-29T10:00:20;9.88;;;9.30;;
20954;SDS011;10636;19.390;-99.256;2023-12-29T10:02:51;11.60;;;11.00;;
20954;SDS011;10636;19.390;-99.256;2023-12-29T10:05:20;10.18;;;9.57;;
20954;SDS011;10636;19.390;-99.256;2023-12-29T10:07:48;10.75;;;10.15;;
20954;SDS011;10636;19.390;-99.256;2023-12-29T10:10:20;10.55;;;9.95;;
20954;SDS011;10636;19.390;-99.256;2023-12-29T10:12:50;10.52;;;10.02;;
20954;SDS011;10636;19.390;-99.256;2023-12-29T10:15:23;11.93;;;11.32;;
20954;SDS011;10636;19.390;-99.256;2023-12-29T10:18:01;9.52;;;9.02;;
20954;SDS011;10636;19.390;-99.256;2023-12-29T10:20:42;10.25;;;9.75;;
20954;SDS011;10636;19.390;-99.256;2023-12-29T10:23:17;10.00;;;9.50;;
20954;SDS011;10636;19.390;-99.256;2023-12-29T10:25:48;11.65;;;11.05;;
20954;SDS011;10636;19.390;-99.256;2023-12-29T10:28:17;10.05;;;9.52;;
20954;SDS011;10636;19.390;-99.256;2023-12-29T10:30:47;11.50;;;10.90;;
20954;SDS011;10636;19.390;-99.256;2023-12-29T10:33:19;12.30;;;11.70;;
20954;SDS011;10636;19.390;-99.256;2023-12-29T10:35:59;10.63;;;10.02;;
20954;SDS011;10636;19.390;-99.256;2023-12-29T10:38:32;10.27;;;9.77;;
20954;SDS011;10636;19.390;-99.256;2023-12-29T10:41:10;13.05;;;12.35;;
20954;SDS011;10636;19.390;-99.256;2023-12-29T10:43:41;13.52;;;12.82;;
20954;SDS011;10636;19.390;-99.256;2023-12-29T10:46:12;12.68;;;12.07;;
20954;SDS011;10636;19.390;-99.256;2023-12-29T10:48:40;12.02;;;11.45;;
20954;SDS011;10636;19.390;-99.256;2023-12-29T10:51:09;13.13;;;12.43;;
20954;SDS011;10636;19.390;-99.256;2023-12-29T10:53:38;12.52;;;11.93;;
20954;SDS011;10636;19.390;-99.256;2023-12-29T10:56:16;10.38;;;9.88;;
20954;SDS011;10636;19.390;-99.256;2023-12-29T10:58:56;13.70;;;13.00;;
20954;SDS011;10636;19.390;-99.256;2023-12-29T11:01:27;13.20;;;12.60;;
20954;SDS011;10636;19.390;-99.256;2023-12-29T11:04:00;13.45;;;12.75;;
20954;SDS011;10636;19.390;-99.256;2023-12-29T11:06:29;15.27;;;14.48;;
20954;SDS011;10636;19.390;-99.256;2023-12-29T11:09:09;14.65;;;13.95;;
20954;SDS011;10636;19.390;-99.256;2023-12-29T11:11:38;13.40;;;12.75;;
20954;SDS011;10636;19.390;-99.256;2023-12-29T11:14:08;14.00;;;13.30;;
20954;SDS011;10636;19.390;-99.256;2023-12-29T11:16:40;16.55;;;15.75;;
20954;SDS011;10636;19.390;-99.256;2023-12-29T11:19:10;16.02;;;15.25;;
20954;SDS011;10636;19.390;-99.256;2023-12-29T11:21:40;13.60;;;12.90;;
20954;SDS011;10636;19.390;-99.256;2023-12-29T11:24:11;15.43;;;14.73;;
20954;SDS011;10636;19.390;-99.256;2023-12-29T11:26:39;14.68;;;13.98;;
20954;SDS011;10636;19.390;-99.256;2023-12-29T11:29:09;16.13;;;15.30;;
20954;SDS011;10636;19.390;-99.256;2023-12-29T11:31:40;16.77;;;15.95;;
20954;SDS011;10636;19.390;-99.256;2023-12-29T11:34:09;16.67;;;15.88;;
20954;SDS011;10636;19.390;-99.256;2023-12-29T11:36:42;16.20;;;15.35;;
20954;SDS011;10636;19.390;-99.256;2023-12-29T11:39:14;16.67;;;15.98;;
20954;SDS011;10636;19.390;-99.256;2023-12-29T11:41:56;15.90;;;15.02;;
20954;SDS011;10636;19.390;-99.256;2023-12-29T11:44:30;15.27;;;14.57;;
20954;SDS011;10636;19.390;-99.256;2023-12-29T11:47:00;16.98;;;16.08;;
20954;SDS011;10636;19.390;-99.256;2023-12-29T11:49:33;14.57;;;13.88;;
20954;SDS011;10636;19.390;-99.256;2023-12-29T11:52:34;16.23;;;15.43;;
20954;SDS011;10636;19.390;-99.256;2023-12-29T11:55:07;14.98;;;14.18;;
20954;SDS011;10636;19.390;-99.256;2023-12-29T11:57:37;17.70;;;16.80;;
20954;SDS011;10636;19.390;-99.256;2023-12-29T12:00:06;17.02;;;16.13;;
20954;SDS011;10636;19.390;-99.256;2023-12-29T12:02:37;15.68;;;14.93;;
20954;SDS011;10636;19.390;-99.256;2023-12-29T12:05:09;16.60;;;15.80;;
20954;SDS011;10636;19.390;-99.256;2023-12-29T12:10:31;16.67;;;15.88;;
20954;SDS011;10636;19.390;-99.256;2023-12-29T12:13:04;16.38;;;15.60;;
20954;SDS011;10636;19.390;-99.256;2023-12-29T12:15:34;16.88;;;16.08;;
20954;SDS011;10636;19.390;-99.256;2023-12-29T12:18:10;16.65;;;15.85;;
20954;SDS011;10636;19.390;-99.256;2023-12-29T12:20:39;16.00;;;15.20;;
20954;SDS011;10636;19.390;-99.256;2023-12-29T12:23:10;17.30;;;16.23;;
20954;SDS011;10636;19.390;-99.256;2023-12-29T12:25:42;17.25;;;16.35;;
20954;SDS011;10636;19.390;-99.256;2023-12-29T12:28:13;15.93;;;15.13;;
20954;SDS011;10636;19.390;-99.256;2023-12-29T12:30:42;16.40;;;15.60;;
20954;SDS011;10636;19.390;-99.256;2023-12-29T12:33:12;17.55;;;16.65;;
20954;SDS011;10636;19.390;-99.256;2023-12-29T12:35:41;19.45;;;18.35;;
20954;SDS011;10636;19.390;-99.256;2023-12-29T12:38:10;15.27;;;14.38;;
20954;SDS011;10636;19.390;-99.256;2023-12-29T12:40:39;17.85;;;16.95;;
20954;SDS011;10636;19.390;-99.256;2023-12-29T12:43:11;18.02;;;17.13;;
20954;SDS011;10636;19.390;-99.256;2023-12-29T12:45:42;17.67;;;16.77;;
20954;SDS011;10636;19.390;-99.256;2023-12-29T12:48:19;15.63;;;14.82;;
20954;SDS011;10636;19.390;-99.256;2023-12-29T12:50:50;17.85;;;16.95;;
20954;SDS011;10636;19.390;-99.256;2023-12-29T12:53:22;16.55;;;15.73;;
20954;SDS011;10636;19.390;-99.256;2023-12-29T12:55:51;17.15;;;16.25;;
20954;SDS011;10636;19.390;-99.256;2023-12-29T12:58:20;17.48;;;16.52;;
20954;SDS011;10636;19.390;-99.256;2023-12-29T13:00:49;16.10;;;15.13;;
20954;SDS011;10636;19.390;-99.256;2023-12-29T13:03:20;16.98;;;16.08;;
20954;SDS011;10636;19.390;-99.256;2023-12-29T13:05:49;17.98;;;17.08;;
20954;SDS011;10636;19.390;-99.256;2023-12-29T13:08:18;17.63;;;16.77;;
20954;SDS011;10636;19.390;-99.256;2023-12-29T13:10:47;16.60;;;15.65;;
20954;SDS011;10636;19.390;-99.256;2023-12-29T13:13:16;17.17;;;16.08;;
20954;SDS011;10636;19.390;-99.256;2023-12-29T13:15:46;17.08;;;16.15;;
20954;SDS011;10636;19.390;-99.256;2023-12-29T13:18:15;16.50;;;15.70;;
20954;SDS011;10636;19.390;-99.256;2023-12-29T13:20:45;17.38;;;16.48;;
20954;SDS011;10636;19.390;-99.256;2023-12-29T13:23:15;17.00;;;16.10;;
20954;SDS011;10636;19.390;-99.256;2023-12-29T13:25:43;17.02;;;16.15;;
20954;SDS011;10636;19.390;-99.256;2023-12-29T13:28:16;16.58;;;15.68;;
20954;SDS011;10636;19.390;-99.256;2023-12-29T13:30:44;16.30;;;15.50;;
20954;SDS011;10636;19.390;-99.256;2023-12-29T13:33:15;17.13;;;16.33;;
20954;SDS011;10636;19.390;-99.256;2023-12-29T13:35:54;16.67;;;15.75;;
20954;SDS011;10636;19.390;-99.256;2023-12-29T13:38:26;17.30;;;16.40;;
20954;SDS011;10636;19.390;-99.256;2023-12-29T13:41:02;17.92;;;16.95;;
20954;SDS011;10636;19.390;-99.256;2023-12-29T13:43:35;16.67;;;15.77;;
20954;SDS011;10636;19.390;-99.256;2023-12-29T13:46:08;17.52;;;16.50;;
20954;SDS011;10636;19.390;-99.256;2023-12-29T13:48:38;18.17;;;17.17;;
20954;SDS011;10636;19.390;-99.256;2023-12-29T13:51:10;17.48;;;16.38;;
20954;SDS011;10636;19.390;-99.256;2023-12-29T13:53:39;16.02;;;15.13;;
20954;SDS011;10636;19.390;-99.256;2023-12-29T13:56:08;14.88;;;14.07;;
20954;SDS011;10636;19.390;-99.256;2023-12-29T13:58:37;17.00;;;16.00;;
20954;SDS011;10636;19.390;-99.256;2023-12-29T14:01:07;17.08;;;16.08;;
20954;SDS011;10636;19.390;-99.256;2023-12-29T14:03:38;18.70;;;17.70;;
20954;SDS011;10636;19.390;-99.256;2023-12-29T14:06:21;15.88;;;14.90;;
20954;SDS011;10636;19.390;-99.256;2023-12-29T14:08:53;18.60;;;17.58;;
20954;SDS011;10636;19.390;-99.256;2023-12-29T14:11:22;19.08;;;18.08;;
20954;SDS011;10636;19.390;-99.256;2023-12-29T14:13:51;16.45;;;15.45;;
20954;SDS011;10636;19.390;-99.256;2023-12-29T14:16:20;16.65;;;15.57;;
20954;SDS011;10636;19.390;-99.256;2023-12-29T14:18:55;18.38;;;17.17;;
20954;SDS011;10636;19.390;-99.256;2023-12-29T14:21:28;18.33;;;17.30;;